Terminal Aerodrome Forecast
Issued by NWS

Home | Current Version | Previous Version | Text Only | Print | Product List | Glossary On
Versions: 1 2 3 4 5 6 7 8 9 10 11 12
000
FTUS44 KMOB 211124
TAFBFM
TAF
KBFM 211124Z 2112/2212 09010KT P6SM SCT023 BKN029
     FM211500 10008KT P6SM SCT025 BKN050
     FM212100 12012KT P6SM VCSH SCT025 BKN050
     FM220900 10009KT P6SM BKN025 BKN250=

USA.gov is the U.S. government's official web portal to all federal, state and local government web resources and services.